Time;durP1;ratioP1;P1;durP2;ratioP2;P2;SDS_P1;SDS_P2;PMS_P1;PMS_P2;Temp;Humidity;BMP_temperature;BMP_pressure;BME280_temperature;BME280_humidity;BME280_pressure;Samples;Min_cycle;Max_cycle;Signal;HPM_P1;HPM_P2
2022/11/29 00:00:52;;;;;;;57.75;27.85;;;;;;;;;;5113430;28;20084;-76
2022/11/29 00:03:18;;;;;;;56.85;26.88;;;;;;;;;;5113530;28;20048;-77
2022/11/29 00:05:43;;;;;;;36.20;19.02;;;;;;;;;;5113498;28;20142;-76
2022/11/29 00:08:09;;;;;;;55.90;26.63;;;;;;;;;;5113455;28;20024;-75
2022/11/29 00:10:36;;;;;;;50.10;26.88;;;;;;;;;;5113444;28;20038;-76
2022/11/29 00:13:02;;;;;;;48.30;22.45;;;;;;;;;;5113571;28;20167;-76
2022/11/29 00:15:27;;;;;;;64.53;33.03;;;;;;;;;;5113151;28;20497;-69
2022/11/29 00:17:53;;;;;;;51.75;25.13;;;;;;;;;;5113211;28;20023;-74
2022/11/29 00:20:18;;;;;;;54.05;26.17;;;;;;;;;;5113237;28;20104;-70
2022/11/29 00:22:44;;;;;;;57.28;28.58;;;;;;;;;;5113185;28;20023;-75
2022/11/29 00:25:09;;;;;;;62.53;29.55;;;;;;;;;;5112999;28;20023;-72
2022/11/29 00:27:35;;;;;;;51.88;25.27;;;;;;;;;;5113019;28;20023;-70
2022/11/29 00:30:00;;;;;;;53.75;29.23;;;;;;;;;;5111878;28;20028;-71
2022/11/29 00:32:25;;;;;;;61.55;31.65;;;;;;;;;;5112997;28;20023;-71
2022/11/29 00:34:51;;;;;;;61.03;27.35;;;;;;;;;;5112740;28;20044;-70
2022/11/29 00:37:16;;;;;;;50.17;26.63;;;;;;;;;;5113005;28;20102;-70
2022/11/29 00:39:42;;;;;;;59.03;26.67;;;;;;;;;;5112961;28;20420;-69
2022/11/29 00:42:07;;;;;;;61.05;29.30;;;;;;;;;;5112699;28;20020;-72
2022/11/29 00:44:33;;;;;;;50.42;23.15;;;;;;;;;;5107848;28;20019;-69
2022/11/29 00:46:58;;;;;;;46.97;23.98;;;;;;;;;;5111625;28;20370;-69
2022/11/29 00:49:24;;;;;;;46.80;23.33;;;;;;;;;;5110819;28;20026;-70
2022/11/29 00:51:49;;;;;;;47.63;24.50;;;;;;;;;;5111645;28;20073;-69
2022/11/29 00:54:15;;;;;;;63.60;32.17;;;;;;;;;;5111780;28;20023;-70
2022/11/29 00:56:41;;;;;;;62.22;30.80;;;;;;;;;;5111237;28;20031;-75
2022/11/29 00:59:07;;;;;;;62.47;30.95;;;;;;;;;;5111500;28;20583;-70
2022/11/29 01:01:33;;;;;;;56.13;29.83;;;;;;;;;;5111401;28;20026;-76
2022/11/29 01:04:00;;;;;;;51.33;22.27;;;;;;;;;;5111443;28;20397;-70
2022/11/29 01:06:25;;;;;;;56.42;30.20;;;;;;;;;;5108594;28;20027;-75
2022/11/29 01:08:51;;;;;;;62.15;28.65;;;;;;;;;;5111339;28;20046;-77
2022/11/29 01:11:22;;;;;;;49.45;26.25;;;;;;;;;;5111118;28;20047;-75
2022/11/29 01:13:49;;;;;;;54.67;27.67;;;;;;;;;;5109318;28;20024;-72
2022/11/29 01:16:16;;;;;;;53.05;26.75;;;;;;;;;;5102692;28;20425;-70
2022/11/29 01:18:42;;;;;;;34.83;19.38;;;;;;;;;;5106265;28;20032;-70
2022/11/29 01:21:11;;;;;;;39.95;20.23;;;;;;;;;;5095797;28;20021;-75
2022/11/29 01:23:37;;;;;;;50.80;26.65;;;;;;;;;;5107781;28;20026;-72
2022/11/29 01:26:07;;;;;;;67.78;35.45;;;;;;;;;;5104549;28;20106;-70
2022/11/29 01:28:33;;;;;;;55.67;28.05;;;;;;;;;;5112498;28;20019;-71
2022/11/29 01:31:07;;;;;;;52.38;25.90;;;;;;;;;;5111304;28;20085;-71
2022/11/29 01:33:34;;;;;;;69.80;34.40;;;;;;;;;;5096738;28;20023;-70
2022/11/29 01:35:59;;;;;;;53.28;29.85;;;;;;;;;;5112402;28;20126;-71
2022/11/29 01:38:24;;;;;;;70.30;35.22;;;;;;;;;;5100787;28;20111;-69
2022/11/29 01:41:21;;;;;;;68.15;33.83;;;;;;;;;;5107134;28;20043;-71
2022/11/29 01:44:06;;;;;;;53.10;26.52;;;;;;;;;;5097956;28;20512;-77
2022/11/29 01:46:34;;;;;;;71.28;33.47;;;;;;;;;;5112444;28;20040;-70
2022/11/29 01:49:14;;;;;;;70.55;38.10;;;;;;;;;;5095723;28;20493;-72
2022/11/29 01:51:44;;;;;;;76.47;33.63;;;;;;;;;;5097399;28;20027;-71
2022/11/29 01:54:10;;;;;;;;;;;;;;;;;;5112840;28;20055;-70
2022/11/29 01:56:37;;;;;;;50.95;26.35;;;;;;;;;;5098910;28;20385;-70
2022/11/29 01:59:07;;;;;;;66.97;35.97;;;;;;;;;;5109041;28;20030;-72
2022/11/29 02:01:34;;;;;;;64.15;32.58;;;;;;;;;;5111948;28;20024;-69
2022/11/29 02:04:00;;;;;;;64.95;29.20;;;;;;;;;;5095767;28;20104;-69
2022/11/29 02:06:28;;;;;;;60.08;27.73;;;;;;;;;;5104721;28;20102;-74
2022/11/29 02:08:53;;;;;;;60.47;31.45;;;;;;;;;;5102575;28;20107;-70
2022/11/29 02:11:53;;;;;;;46.38;25.02;;;;;;;;;;5112034;28;20107;-70
2022/11/29 02:14:48;;;;;;;59.92;27.88;;;;;;;;;;5103621;28;20463;-70
2022/11/29 02:17:25;;;;;;;70.38;34.28;;;;;;;;;;5098096;28;20032;-70
2022/11/29 02:20:12;;;;;;;69.57;31.67;;;;;;;;;;5115858;28;20036;-69
2022/11/29 02:23:01;;;;;;;67.90;33.85;;;;;;;;;;5104705;28;20417;-70
2022/11/29 02:25:40;;;;;;;69.20;33.08;;;;;;;;;;5025597;28;20046;-69
2022/11/29 02:28:27;;;;;;;73.75;32.00;;;;;;;;;;5032807;28;20034;-69
2022/11/29 02:30:56;;;;;;;72.45;34.67;;;;;;;;;;5032981;28;20040;-70
2022/11/29 02:33:35;;;;;;;66.35;32.30;;;;;;;;;;5032813;28;20646;-71
2022/11/29 02:36:18;;;;;;;69.22;30.70;;;;;;;;;;5032463;28;20053;-71
2022/11/29 02:38:46;;;;;;;81.20;34.42;;;;;;;;;;5032300;28;20104;-70
2022/11/29 02:41:36;;;;;;;73.43;31.33;;;;;;;;;;5032506;28;20492;-74
2022/11/29 02:44:29;;;;;;;81.18;31.92;;;;;;;;;;5032599;28;20128;-69
2022/11/29 02:47:06;;;;;;;77.68;33.08;;;;;;;;;;5032628;28;20034;-70
2022/11/29 02:49:41;;;;;;;68.53;31.60;;;;;;;;;;5032500;28;20099;-72
2022/11/29 02:52:33;;;;;;;77.53;33.53;;;;;;;;;;5032373;28;20033;-70
2022/11/29 02:55:31;;;;;;;73.22;32.35;;;;;;;;;;5015442;28;20025;-71
2022/11/29 02:58:12;;;;;;;70.93;31.58;;;;;;;;;;4937772;29;20543;-70
2022/11/29 03:01:02;;;;;;;70.07;31.83;;;;;;;;;;4954393;29;20482;-76
2022/11/29 03:03:37;;;;;;;72.40;32.85;;;;;;;;;;5015945;28;20547;-76
2022/11/29 03:06:10;;;;;;;68.57;29.42;;;;;;;;;;5052251;28;20036;-77
2022/11/29 03:09:15;;;;;;;78.90;34.50;;;;;;;;;;5051852;28;20431;-76
2022/11/29 03:11:52;;;;;;;63.65;27.45;;;;;;;;;;5051486;28;20040;-74
2022/11/29 03:14:27;;;;;;;71.13;34.50;;;;;;;;;;5052189;28;20029;-75
2022/11/29 03:16:58;;;;;;;83.82;37.55;;;;;;;;;;5051765;28;20091;-76
2022/11/29 03:20:06;;;;;;;76.85;32.75;;;;;;;;;;5051760;28;20204;-75
2022/11/29 03:22:56;;;;;;;91.25;39.85;;;;;;;;;;5031583;28;20091;-76
2022/11/29 03:25:28;;;;;;;72.95;31.05;;;;;;;;;;5044641;28;20033;-74
2022/11/29 03:28:02;;;;;;;69.45;29.30;;;;;;;;;;5034941;28;20439;-76
2022/11/29 03:30:31;;;;;;;78.00;32.88;;;;;;;;;;5051804;28;20033;-76
2022/11/29 03:33:11;;;;;;;76.68;31.55;;;;;;;;;;5051818;28;20025;-76
2022/11/29 03:35:46;;;;;;;;;;;;;;;;;;5105642;28;20047;-76
2022/11/29 03:38:39;;;;;;;65.20;27.23;;;;;;;;;;5111302;28;19912;-76
2022/11/29 03:41:31;;;;;;;59.95;28.75;;;;;;;;;;5101338;28;20031;-70
2022/11/29 03:44:08;;;;;;;65.03;30.33;;;;;;;;;;5096904;28;20023;-75
2022/11/29 03:47:01;;;;;;;72.07;29.50;;;;;;;;;;5111164;28;20554;-75
2022/11/29 03:49:48;;;;;;;71.97;31.90;;;;;;;;;;5105236;28;20104;-70
2022/11/29 03:52:23;;;;;;;64.60;28.02;;;;;;;;;;5101492;28;20158;-72
2022/11/29 03:55:07;;;;;;;81.18;34.25;;;;;;;;;;5093620;28;20154;-69
2022/11/29 03:57:44;;;;;;;75.35;32.05;;;;;;;;;;5097729;28;20478;-70
2022/11/29 04:00:11;;;;;;;66.32;29.05;;;;;;;;;;5114027;28;20040;-69
2022/11/29 04:02:55;;;;;;;79.38;33.45;;;;;;;;;;5113853;28;20135;-75
2022/11/29 04:05:58;;;;;;;94.72;37.90;;;;;;;;;;5099135;28;20575;-69
2022/11/29 04:08:50;;;;;;;76.38;30.80;;;;;;;;;;5109922;28;20447;-70
2022/11/29 04:11:25;;;;;;;85.25;31.75;;;;;;;;;;5103666;28;20020;-69
2022/11/29 04:14:28;;;;;;;69.07;31.38;;;;;;;;;;5098197;28;20028;-71
2022/11/29 04:17:31;;;;;;;86.97;31.98;;;;;;;;;;5113473;28;20035;-69
2022/11/29 04:20:27;;;;;;;77.55;29.42;;;;;;;;;;5030598;28;20583;-70
2022/11/29 04:23:01;;;;;;;93.57;35.67;;;;;;;;;;5013576;28;20088;-70
2022/11/29 04:25:57;;;;;;;75.47;30.70;;;;;;;;;;5030563;28;20248;-69
2022/11/29 04:28:42;;;;;;;74.63;30.30;;;;;;;;;;5019849;28;20084;-70
2022/11/29 04:31:31;;;;;;;67.20;30.23;;;;;;;;;;5011186;28;20123;-75
2022/11/29 04:34:34;;;;;;;68.40;31.05;;;;;;;;;;5016139;28;20037;-76
2022/11/29 04:37:20;;;;;;;65.47;27.77;;;;;;;;;;5030587;28;20112;-73
2022/11/29 04:39:59;;;;;;;76.32;32.58;;;;;;;;;;5030600;28;20033;-70
2022/11/29 04:43:05;;;;;;;74.88;31.30;;;;;;;;;;5030390;28;20026;-73
2022/11/29 04:45:39;;;;;;;69.13;29.42;;;;;;;;;;5030453;28;20041;-74
2022/11/29 04:48:25;;;;;;;74.05;30.02;;;;;;;;;;5030465;28;20049;-70
2022/11/29 04:51:38;;;;;;;72.70;30.27;;;;;;;;;;5030443;28;20147;-71
2022/11/29 04:54:34;;;;;;;86.80;36.40;;;;;;;;;;5007733;28;20094;-71
2022/11/29 04:57:17;;;;;;;67.95;29.27;;;;;;;;;;5050396;28;20033;-72
2022/11/29 05:00:00;;;;;;;48.65;22.90;;;;;;;;;;5030393;28;20036;-70
2022/11/29 05:02:34;;;;;;;68.60;30.83;;;;;;;;;;5030504;28;20034;-73
2022/11/29 05:05:21;;;;;;;65.25;28.20;;;;;;;;;;5037647;28;20029;-76
2022/11/29 05:08:11;;;;;;;65.07;27.40;;;;;;;;;;5033332;28;20116;-71
2022/11/29 05:11:01;;;;;;;76.40;29.27;;;;;;;;;;5050026;28;20027;-70
2022/11/29 05:13:44;;;;;;;77.70;31.63;;;;;;;;;;5050004;28;20527;-71
2022/11/29 05:16:28;;;;;;;68.25;31.85;;;;;;;;;;5036121;28;20138;-73
2022/11/29 05:19:38;;;;;;;69.82;29.58;;;;;;;;;;5029899;28;20038;-73
2022/11/29 05:22:42;;;;;;;64.17;26.83;;;;;;;;;;5040919;28;20037;-73
2022/11/29 05:25:35;;;;;;;57.30;26.58;;;;;;;;;;5049203;28;20041;-76
2022/11/29 05:28:07;;;;;;;44.92;20.85;;;;;;;;;;5078791;28;20040;-76
2022/11/29 05:31:17;;;;;;;72.82;32.90;;;;;;;;;;5112734;28;20104;-76
2022/11/29 05:34:15;;;;;;;69.10;29.55;;;;;;;;;;5029919;28;20037;-77
2022/11/29 05:37:18;;;;;;;59.15;26.52;;;;;;;;;;5027042;28;20037;-76
2022/11/29 05:40:02;;;;;;;72.47;30.65;;;;;;;;;;5012804;28;20052;-76
2022/11/29 05:42:47;;;;;;;77.13;30.30;;;;;;;;;;5033557;28;20156;-75
2022/11/29 05:45:33;;;;;;;76.55;29.38;;;;;;;;;;4955341;29;20178;-74
2022/11/29 05:48:23;;;;;;;81.90;30.00;;;;;;;;;;4955277;29;20047;-74
2022/11/29 05:51:26;;;;;;;82.28;34.55;;;;;;;;;;4955453;29;20387;-76
2022/11/29 05:54:09;;;;;;;81.00;31.25;;;;;;;;;;4955445;29;20470;-76
2022/11/29 05:56:46;;;;;;;67.70;30.58;;;;;;;;;;4955286;29;20043;-76
2022/11/29 05:59:18;;;;;;;92.13;37.45;;;;;;;;;;4955332;29;20032;-70
2022/11/29 06:02:03;;;;;;;90.30;35.88;;;;;;;;;;4955380;29;20031;-69
2022/11/29 06:04:40;;;;;;;66.70;28.42;;;;;;;;;;4955164;29;20134;-74
2022/11/29 06:07:15;;;;;;;60.10;25.10;;;;;;;;;;4954919;29;20039;-70
2022/11/29 06:09:48;;;;;;;80.25;31.73;;;;;;;;;;4969380;28;20227;-70
2022/11/29 06:12:22;;;;;;;73.53;28.73;;;;;;;;;;5052989;28;20056;-69
2022/11/29 06:15:18;;;;;;;81.32;32.10;;;;;;;;;;5052946;28;20384;-69
2022/11/29 06:18:08;;;;;;;68.32;30.70;;;;;;;;;;5052680;28;20095;-71
2022/11/29 06:20:37;;;;;;;47.30;20.10;;;;;;;;;;5052999;28;20475;-76
2022/11/29 06:23:14;;;;;;;69.20;31.30;;;;;;;;;;5102740;28;20481;-76
2022/11/29 06:25:48;;;;;;;62.50;28.35;;;;;;;;;;5115320;28;20019;-75
2022/11/29 06:28:29;;;;;;;60.72;26.75;;;;;;;;;;5115500;28;20035;-76
2022/11/29 06:31:24;;;;;;;64.80;28.52;;;;;;;;;;5115282;28;20111;-77
2022/11/29 06:33:55;;;;;;;57.90;26.27;;;;;;;;;;5115303;28;20378;-76
2022/11/29 06:36:36;;;;;;;79.85;31.70;;;;;;;;;;5110676;28;20028;-70
2022/11/29 06:39:02;;;;;;;72.80;29.52;;;;;;;;;;5105411;28;20449;-76
2022/11/29 06:41:28;;;;;;;65.82;27.75;;;;;;;;;;5101009;28;20028;-75
2022/11/29 06:43:54;;;;;;;48.65;22.13;;;;;;;;;;5112596;28;20032;-77
2022/11/29 06:46:37;;;;;;;63.55;28.27;;;;;;;;;;5095189;28;20067;-74
2022/11/29 06:49:05;;;;;;;74.10;32.95;;;;;;;;;;5094872;28;20098;-75
2022/11/29 06:51:36;;;;;;;65.13;28.77;;;;;;;;;;5105032;28;20023;-76
2022/11/29 06:54:24;;;;;;;64.93;27.63;;;;;;;;;;5115245;28;20051;-76
2022/11/29 06:57:27;;;;;;;68.05;28.55;;;;;;;;;;5108885;28;20032;-71
2022/11/29 07:00:01;;;;;;;68.35;29.90;;;;;;;;;;5032251;28;20037;-70
2022/11/29 07:02:35;;;;;;;65.47;28.83;;;;;;;;;;5032864;28;20431;-70
2022/11/29 07:05:07;;;;;;;49.00;23.42;;;;;;;;;;5032200;28;20049;-73
2022/11/29 07:07:34;;;;;;;62.40;28.00;;;;;;;;;;5031981;28;20033;-70
2022/11/29 07:10:03;;;;;;;64.85;27.38;;;;;;;;;;5015420;28;20047;-73
2022/11/29 07:12:29;;;;;;;67.50;31.53;;;;;;;;;;5031982;28;20559;-70
2022/11/29 07:14:55;;;;;;;72.60;31.52;;;;;;;;;;5031931;28;20235;-76
2022/11/29 07:17:29;;;;;;;64.25;30.65;;;;;;;;;;5032021;28;20077;-70
2022/11/29 07:20:12;;;;;;;62.60;29.25;;;;;;;;;;5031658;28;20171;-70
2022/11/29 07:23:00;;;;;;;75.28;33.58;;;;;;;;;;5031636;28;20029;-71
2022/11/29 07:25:50;;;;;;;64.75;31.05;;;;;;;;;;5031506;28;20033;-74
2022/11/29 07:28:16;;;;;;;67.37;31.30;;;;;;;;;;5031478;28;20033;-71
2022/11/29 07:30:47;;;;;;;64.20;29.38;;;;;;;;;;5031405;28;20293;-75
2022/11/29 07:33:49;;;;;;;72.35;31.33;;;;;;;;;;5031730;28;20543;-69
2022/11/29 07:36:27;;;;;;;63.90;28.58;;;;;;;;;;5057520;28;20047;-73
2022/11/29 07:39:26;;;;;;;68.70;34.13;;;;;;;;;;5107857;28;20087;-70
2022/11/29 07:42:15;;;;;;;58.60;27.70;;;;;;;;;;5108089;28;20027;-70
2022/11/29 07:44:56;;;;;;;55.40;26.75;;;;;;;;;;5093355;28;20024;-69
2022/11/29 07:47:21;;;;;;;71.03;34.08;;;;;;;;;;5104920;28;20478;-70
2022/11/29 07:49:46;;;;;;;62.53;31.98;;;;;;;;;;5114122;28;20039;-76
2022/11/29 07:52:14;;;;;;;60.13;28.63;;;;;;;;;;5097182;28;20513;-75
2022/11/29 07:54:40;;;;;;;63.72;30.85;;;;;;;;;;5113766;28;20055;-76
2022/11/29 07:57:05;;;;;;;68.60;33.10;;;;;;;;;;5102470;28;20071;-75
2022/11/29 07:59:30;;;;;;;61.60;29.17;;;;;;;;;;5107880;28;20027;-70
2022/11/29 08:01:57;;;;;;;65.82;30.08;;;;;;;;;;5113604;28;20024;-69
2022/11/29 08:04:23;;;;;;;68.53;29.08;;;;;;;;;;5113837;28;20111;-76
2022/11/29 08:06:48;;;;;;;54.50;27.02;;;;;;;;;;5110929;28;20231;-69
2022/11/29 08:09:14;;;;;;;59.45;28.95;;;;;;;;;;5113258;28;20024;-70
2022/11/29 08:11:39;;;;;;;55.17;25.48;;;;;;;;;;5111726;28;20019;-78
2022/11/29 08:14:05;;;;;;;62.92;30.17;;;;;;;;;;5108651;28;20023;-78
2022/11/29 08:16:31;;;;;;;63.35;28.65;;;;;;;;;;5112860;28;20030;-78
2022/11/29 08:18:57;;;;;;;56.42;28.60;;;;;;;;;;5113378;28;20047;-73
2022/11/29 08:21:22;;;;;;;56.55;26.70;;;;;;;;;;5112813;28;20052;-70
2022/11/29 08:23:49;;;;;;;55.90;25.48;;;;;;;;;;5113027;28;20043;-70
2022/11/29 08:26:15;;;;;;;61.17;30.08;;;;;;;;;;5112360;28;20036;-72
2022/11/29 08:28:41;;;;;;;58.00;27.75;;;;;;;;;;5112608;28;20027;-72
2022/11/29 08:31:10;;;;;;;59.47;28.58;;;;;;;;;;5105095;28;20024;-77
2022/11/29 08:33:37;;;;;;;67.63;28.70;;;;;;;;;;5095484;28;20047;-77
2022/11/29 08:36:10;;;;;;;60.95;28.65;;;;;;;;;;5093001;28;20097;-78
2022/11/29 08:38:37;;;;;;;63.65;30.92;;;;;;;;;;5104986;28;20414;-75
2022/11/29 08:41:06;;;;;;;59.80;30.02;;;;;;;;;;5112996;28;20026;-74
2022/11/29 08:43:31;;;;;;;44.63;20.63;;;;;;;;;;5113296;28;20396;-71
2022/11/29 08:45:57;;;;;;;53.95;26.13;;;;;;;;;;5093154;28;20028;-70
2022/11/29 08:48:23;;;;;;;41.47;21.77;;;;;;;;;;5092621;28;20020;-74
2022/11/29 08:50:50;;;;;;;47.55;24.38;;;;;;;;;;5092147;28;20519;-71
2022/11/29 08:56:00;;;;;;;36.47;20.15;;;;;;;;;;5106963;28;20063;-74
2022/11/29 08:58:26;;;;;;;40.30;21.65;;;;;;;;;;5112190;28;20055;-75
2022/11/29 09:00:52;;;;;;;58.30;30.08;;;;;;;;;;5112505;28;20522;-75
2022/11/29 09:06:13;;;;;;;57.67;27.35;;;;;;;;;;5110990;28;20034;-72
2022/11/29 09:08:42;;;;;;;63.58;31.80;;;;;;;;;;5112484;28;20027;-71
2022/11/29 09:11:18;;;;;;;54.15;26.90;;;;;;;;;;5116033;28;20019;-70
2022/11/29 09:13:46;;;;;;;59.85;28.33;;;;;;;;;;5106509;28;20580;-72
2022/11/29 09:16:14;;;;;;;58.67;28.08;;;;;;;;;;5114112;28;20028;-71
2022/11/29 09:18:40;;;;;;;48.13;22.73;;;;;;;;;;5115171;28;20113;-71
2022/11/29 09:21:08;;;;;;;54.80;29.33;;;;;;;;;;5115545;28;20039;-71
2022/11/29 09:23:35;;;;;;;66.18;30.38;;;;;;;;;;5115969;28;20027;-75
2022/11/29 09:26:01;;;;;;;59.35;28.95;;;;;;;;;;5110907;28;20030;-75
2022/11/29 09:28:26;;;;;;;57.13;26.20;;;;;;;;;;5115775;28;20032;-71
2022/11/29 09:30:52;;;;;;;62.90;28.00;;;;;;;;;;5111093;28;20386;-71
2022/11/29 09:33:18;;;;;;;57.40;28.00;;;;;;;;;;5108191;28;20458;-70
2022/11/29 09:35:44;;;;;;;62.92;30.33;;;;;;;;;;5115463;28;20051;-70
2022/11/29 09:38:11;;;;;;;66.68;31.10;;;;;;;;;;5116578;28;20128;-74
2022/11/29 09:40:45;;;;;;;66.70;32.47;;;;;;;;;;5116267;28;20016;-71
2022/11/29 09:43:26;;;;;;;61.13;29.88;;;;;;;;;;5116289;28;20490;-69
2022/11/29 09:45:58;;;;;;;;;;;;;;;;;;5116708;28;20032;-69
2022/11/29 09:48:35;;;;;;;61.42;27.83;;;;;;;;;;5116389;28;19912;-69
2022/11/29 09:51:07;;;;;;;51.08;26.25;;;;;;;;;;5115063;28;20119;-73
2022/11/29 09:54:12;;;;;;;45.42;20.65;;;;;;;;;;5116006;27;20070;-70
2022/11/29 09:56:43;;;;;;;57.97;27.25;;;;;;;;;;5116463;28;20020;-70
2022/11/29 09:59:30;;;;;;;47.65;24.85;;;;;;;;;;5116152;28;20486;-76
2022/11/29 10:02:01;;;;;;;60.67;30.05;;;;;;;;;;5116013;28;20024;-73
2022/11/29 10:04:38;;;;;;;41.03;21.70;;;;;;;;;;5116037;28;20024;-74
2022/11/29 10:07:15;;;;;;;37.90;21.35;;;;;;;;;;5115921;28;20043;-71
2022/11/29 10:09:46;;;;;;;57.05;24.95;;;;;;;;;;5115757;28;20110;-71
2022/11/29 10:12:29;;;;;;;50.60;25.20;;;;;;;;;;5115955;28;20553;-70
2022/11/29 10:15:03;;;;;;;45.58;26.05;;;;;;;;;;5115963;28;20024;-75
2022/11/29 10:17:58;;;;;;;45.30;24.75;;;;;;;;;;5115769;28;20161;-76
2022/11/29 10:20:27;;;;;;;56.35;29.38;;;;;;;;;;5115430;28;20020;-76
2022/11/29 10:22:55;;;;;;;55.80;30.33;;;;;;;;;;5115062;28;20016;-76
2022/11/29 10:25:44;;;;;;;49.05;24.63;;;;;;;;;;5115421;28;20030;-74
2022/11/29 10:28:17;;;;;;;58.63;26.00;;;;;;;;;;5115542;28;20470;-76
2022/11/29 10:30:43;;;;;;;59.50;30.58;;;;;;;;;;5115027;28;20019;-74
2022/11/29 10:33:19;;;;;;;55.45;28.55;;;;;;;;;;5115737;28;20150;-75
2022/11/29 10:35:49;;;;;;;51.97;30.83;;;;;;;;;;5115303;27;20109;-73
2022/11/29 10:38:15;;;;;;;53.88;27.70;;;;;;;;;;5105829;28;20028;-71
2022/11/29 10:40:44;;;;;;;46.22;24.02;;;;;;;;;;5095786;28;20483;-75
2022/11/29 10:43:10;;;;;;;53.63;27.80;;;;;;;;;;5110867;28;20058;-70
2022/11/29 10:45:49;;;;;;;51.60;27.30;;;;;;;;;;5102654;28;20128;-71
2022/11/29 10:48:23;;;;;;;49.95;25.92;;;;;;;;;;5101602;28;20020;-75
2022/11/29 10:50:51;;;;;;;37.47;20.25;;;;;;;;;;5111343;28;20030;-75
2022/11/29 10:53:21;;;;;;;45.03;23.15;;;;;;;;;;5099224;28;20022;-73
2022/11/29 10:55:59;;;;;;;50.55;26.52;;;;;;;;;;5107245;28;20036;-76
2022/11/29 10:58:27;;;;;;;35.42;18.33;;;;;;;;;;5107721;28;20415;-74
2022/11/29 11:00:58;;;;;;;39.72;21.70;;;;;;;;;;5097760;28;20042;-77
2022/11/29 11:03:26;;;;;;;53.60;26.50;;;;;;;;;;5110283;28;20031;-76
2022/11/29 11:06:01;;;;;;;47.00;22.42;;;;;;;;;;5093475;28;20323;-75
2022/11/29 11:08:28;;;;;;;59.03;31.27;;;;;;;;;;5093408;28;20050;-72
2022/11/29 11:10:55;;;;;;;44.63;21.23;;;;;;;;;;5094120;28;20027;-74
2022/11/29 11:13:24;;;;;;;28.25;16.65;;;;;;;;;;5094283;28;20024;-70
2022/11/29 11:15:56;;;;;;;38.50;20.75;;;;;;;;;;5092674;28;20024;-72
2022/11/29 11:18:27;;;;;;;37.17;18.83;;;;;;;;;;5094426;28;20023;-71
2022/11/29 11:20:55;;;;;;;56.17;30.13;;;;;;;;;;5093023;28;20085;-70
2022/11/29 11:23:26;;;;;;;61.88;31.92;;;;;;;;;;5092268;28;20024;-71
2022/11/29 11:26:01;;;;;;;59.17;30.92;;;;;;;;;;5102986;28;20616;-72
2022/11/29 11:28:30;;;;;;;27.27;16.20;;;;;;;;;;5112184;28;20123;-71
2022/11/29 11:31:07;;;;;;;49.13;23.80;;;;;;;;;;5112417;28;20532;-72
2022/11/29 11:33:50;;;;;;;57.53;29.63;;;;;;;;;;5112041;28;20035;-70
2022/11/29 11:36:19;;;;;;;37.50;18.55;;;;;;;;;;5113260;28;20091;-70
2022/11/29 11:38:57;;;;;;;56.45;28.75;;;;;;;;;;5114283;28;20055;-78
2022/11/29 11:44:33;;;;;;;53.10;26.80;;;;;;;;;;5114396;28;20023;-70
2022/11/29 11:47:00;;;;;;;47.58;24.33;;;;;;;;;;5114336;28;20385;-68
2022/11/29 11:49:30;;;;;;;55.28;28.55;;;;;;;;;;5113863;28;20023;-75
2022/11/29 11:51:58;;;;;;;40.60;19.52;;;;;;;;;;5114146;28;20023;-73
2022/11/29 11:54:24;;;;;;;46.97;24.00;;;;;;;;;;5114206;28;20478;-75
2022/11/29 11:56:51;;;;;;;50.38;21.98;;;;;;;;;;5114168;28;20039;-77
2022/11/29 11:59:23;;;;;;;43.10;21.25;;;;;;;;;;5113856;28;20025;-75
2022/11/29 12:01:49;;;;;;;50.88;26.58;;;;;;;;;;5114065;27;20066;-74
2022/11/29 12:04:23;;;;;;;60.90;28.23;;;;;;;;;;5113765;28;20080;-74
2022/11/29 12:06:58;;;;;;;55.67;28.65;;;;;;;;;;5113676;28;20027;-76
2022/11/29 12:09:27;;;;;;;36.30;20.77;;;;;;;;;;5113967;28;20518;-74
2022/11/29 12:12:15;;;;;;;52.05;24.35;;;;;;;;;;5113736;28;20024;-71
2022/11/29 12:14:50;;;;;;;63.75;31.27;;;;;;;;;;5102695;28;20035;-72
2022/11/29 12:17:47;;;;;;;55.45;25.00;;;;;;;;;;5113630;28;20031;-77
2022/11/29 12:20:19;;;;;;;59.92;27.98;;;;;;;;;;5050419;28;20036;-73
2022/11/29 12:23:08;;;;;;;55.00;28.83;;;;;;;;;;5050769;28;20033;-73
2022/11/29 12:25:56;;;;;;;56.90;27.05;;;;;;;;;;4971689;28;20417;-75
2022/11/29 12:28:28;;;;;;;46.00;24.70;;;;;;;;;;4965701;28;20043;-75
2022/11/29 12:31:12;;;;;;;26.27;17.20;;;;;;;;;;4972190;28;20047;-75
2022/11/29 12:33:51;;;;;;;56.28;30.60;;;;;;;;;;4971918;28;20342;-73
2022/11/29 12:36:23;;;;;;;48.10;24.77;;;;;;;;;;4971824;28;20518;-73
2022/11/29 12:39:27;;;;;;;45.22;21.92;;;;;;;;;;4988083;28;20056;-73
2022/11/29 12:42:13;;;;;;;53.97;26.98;;;;;;;;;;4972115;28;20402;-76
2022/11/29 12:45:17;;;;;;;47.90;24.60;;;;;;;;;;4987309;28;20038;-76
2022/11/29 12:48:03;;;;;;;54.50;25.25;;;;;;;;;;4933164;29;20059;-75
2022/11/29 12:50:43;;;;;;;53.40;28.33;;;;;;;;;;4933231;29;20043;-76
2022/11/29 12:53:44;;;;;;;70.38;30.58;;;;;;;;;;4933497;29;20028;-75
2022/11/29 12:56:35;;;;;;;49.15;27.13;;;;;;;;;;4943665;28;20399;-75
2022/11/29 12:59:12;;;;;;;56.92;26.88;;;;;;;;;;4991401;28;20157;-76
2022/11/29 13:01:55;;;;;;;66.50;28.50;;;;;;;;;;4998179;28;20486;-77
2022/11/29 13:04:35;;;;;;;54.55;28.48;;;;;;;;;;5070468;28;20044;-75
2022/11/29 13:07:09;;;;;;;55.03;26.85;;;;;;;;;;5070427;28;20029;-77
2022/11/29 13:09:56;;;;;;;49.60;26.05;;;;;;;;;;5054243;28;20047;-77
2022/11/29 13:12:36;;;;;;;50.80;24.48;;;;;;;;;;5070428;28;20086;-71
2022/11/29 13:15:17;;;;;;;59.40;28.58;;;;;;;;;;5070093;28;20082;-70
2022/11/29 13:17:53;;;;;;;57.70;29.23;;;;;;;;;;5072668;28;20052;-69
2022/11/29 13:20:46;;;;;;;63.00;32.25;;;;;;;;;;5063080;28;20129;-69
2022/11/29 13:23:12;;;;;;;64.78;33.03;;;;;;;;;;5078838;28;20116;-72
2022/11/29 13:25:42;;;;;;;58.40;30.92;;;;;;;;;;5100966;28;20116;-70
2022/11/29 13:28:15;;;;;;;64.88;31.77;;;;;;;;;;5112471;28;20111;-70
2022/11/29 13:30:41;;;;;;;60.83;27.75;;;;;;;;;;5112051;28;20153;-69
2022/11/29 13:33:45;;;;;;;63.90;28.50;;;;;;;;;;5112454;28;20110;-69
2022/11/29 13:36:29;;;;;;;61.78;30.30;;;;;;;;;;5092213;28;20040;-69
2022/11/29 13:39:09;;;;;;;65.15;32.20;;;;;;;;;;5092134;28;20039;-76
2022/11/29 13:41:45;;;;;;;64.57;29.83;;;;;;;;;;5092001;28;20056;-74
2022/11/29 13:44:32;;;;;;;69.50;31.85;;;;;;;;;;5092161;28;20032;-76
2022/11/29 13:47:08;;;;;;;68.15;30.27;;;;;;;;;;5091847;28;20032;-76
2022/11/29 13:49:56;;;;;;;68.07;31.77;;;;;;;;;;5092045;28;20050;-75
2022/11/29 13:52:27;;;;;;;55.60;24.63;;;;;;;;;;5092045;28;20131;-74
2022/11/29 13:55:11;;;;;;;63.85;29.92;;;;;;;;;;5091657;28;20024;-76
2022/11/29 13:58:02;;;;;;;62.33;29.15;;;;;;;;;;5095552;28;20024;-70
2022/11/29 14:00:36;;;;;;;58.72;28.17;;;;;;;;;;5095277;28;20470;-71
2022/11/29 14:03:23;;;;;;;40.33;21.75;;;;;;;;;;5096795;28;20102;-76
2022/11/29 14:05:50;;;;;;;54.20;26.10;;;;;;;;;;5095391;28;20080;-76
2022/11/29 14:08:32;;;;;;;57.95;26.85;;;;;;;;;;5095593;28;20107;-73
2022/11/29 14:11:12;;;;;;;56.45;26.70;;;;;;;;;;5095189;28;20020;-76
2022/11/29 14:14:08;;;;;;;62.78;28.42;;;;;;;;;;5095599;28;20016;-72
2022/11/29 14:16:48;;;;;;;57.08;26.70;;;;;;;;;;5094032;28;20039;-75
2022/11/29 14:19:28;;;;;;;67.40;30.30;;;;;;;;;;5095404;28;20030;-69
2022/11/29 14:22:06;;;;;;;;;;;;;;;;;;5095692;28;20409;-71
2022/11/29 14:24:31;;;;;;;46.20;22.42;;;;;;;;;;5095277;28;19981;-72
2022/11/29 14:27:19;;;;;;;36.83;17.90;;;;;;;;;;5114854;28;20031;-73
2022/11/29 14:29:54;;;;;;;68.90;30.38;;;;;;;;;;5052439;28;20391;-75
2022/11/29 14:32:27;;;;;;;71.30;32.20;;;;;;;;;;5035786;28;20535;-70
2022/11/29 14:35:10;;;;;;;59.55;29.20;;;;;;;;;;5052449;28;20048;-71
2022/11/29 14:38:04;;;;;;;65.72;31.20;;;;;;;;;;5052460;28;20422;-69
2022/11/29 14:40:35;;;;;;;57.40;27.83;;;;;;;;;;5052334;28;20041;-74
2022/11/29 14:43:04;;;;;;;62.00;29.30;;;;;;;;;;5052521;28;20033;-73
2022/11/29 14:45:32;;;;;;;60.33;31.02;;;;;;;;;;5052148;28;20029;-72
2022/11/29 14:47:59;;;;;;;62.05;31.25;;;;;;;;;;5046259;28;20068;-73
2022/11/29 14:50:38;;;;;;;51.42;22.08;;;;;;;;;;5050459;28;20040;-72
2022/11/29 14:53:06;;;;;;;57.72;25.80;;;;;;;;;;5052164;28;20130;-74
2022/11/29 14:55:36;;;;;;;52.75;27.67;;;;;;;;;;5045187;28;20033;-72
2022/11/29 14:58:02;;;;;;;;;;;;;;;;;;5039236;28;20373;-70
2022/11/29 15:00:33;;;;;;;60.42;29.63;;;;;;;;;;5036258;28;19917;-69
2022/11/29 15:03:15;;;;;;;78.10;36.38;;;;;;;;;;5037027;28;20045;-70
2022/11/29 15:05:49;;;;;;;64.38;31.33;;;;;;;;;;5050315;28;20496;-75
2022/11/29 15:08:27;;;;;;;62.92;32.90;;;;;;;;;;5112814;28;20044;-76
2022/11/29 15:11:04;;;;;;;63.97;27.70;;;;;;;;;;5113261;28;20047;-76
2022/11/29 15:13:35;;;;;;;46.53;23.08;;;;;;;;;;5113497;28;20031;-73
2022/11/29 15:16:34;;;;;;;68.22;30.08;;;;;;;;;;5103041;28;20028;-72
2022/11/29 15:19:43;;;;;;;65.68;32.75;;;;;;;;;;5110324;28;20103;-76
2022/11/29 15:22:25;;;;;;;54.78;26.77;;;;;;;;;;5105007;28;20089;-70